Time;durP1;ratioP1;P1;durP2;ratioP2;P2;SDS_P1;SDS_P2;PMS_P1;PMS_P2;Temp;Humidity;BMP_temperature;BMP_pressure;BME280_temperature;BME280_humidity;BME280_pressure;Samples;Min_cycle;Max_cycle;Signal;HPM_P1;HPM_P2
2021/05/12 00:00:51;;;;;;;3.50;1.57;;;;;;;12.64;56.18;100768.20;1703312;82;21100;-74
2021/05/12 00:03:18;;;;;;;2.70;1.50;;;;;;;12.61;56.39;100766.05;1710369;82;22729;-74
2021/05/12 00:05:45;;;;;;;2.58;1.60;;;;;;;12.57;56.51;100774.32;1716237;82;21096;-73
2021/05/12 00:08:11;;;;;;;3.62;1.50;;;;;;;12.50;56.74;100773.23;1716022;81;21787;-74
2021/05/12 00:10:38;;;;;;;6.35;1.70;;;;;;;12.42;56.79;100773.22;1702254;82;21079;-73
2021/05/12 00:13:05;;;;;;;2.67;1.70;;;;;;;12.34;56.97;100777.77;1714043;81;21143;-72
2021/05/12 00:15:31;;;;;;;2.10;1.20;;;;;;;12.25;57.18;100780.68;1739287;81;23290;-72
2021/05/12 00:17:58;;;;;;;3.47;1.60;;;;;;;12.17;57.39;100783.84;1707086;82;21629;-72
2021/05/12 00:20:29;;;;;;;3.05;1.55;;;;;;;12.07;57.08;100781.12;1728972;81;21188;-73
2021/05/12 00:23:03;;;;;;;5.35;1.50;;;;;;;11.97;56.86;100781.88;1704275;82;21120;-72
2021/05/12 00:25:27;;;;;;;2.25;1.40;;;;;;;11.86;56.76;100785.59;1731886;82;21092;-73
2021/05/12 00:27:55;;;;;;;2.67;1.57;;;;;;;11.75;56.86;100790.05;1725839;82;21160;-74
2021/05/12 00:30:22;;;;;;;3.27;1.72;;;;;;;11.64;56.95;100788.36;1707154;82;21710;-75
2021/05/12 00:32:49;;;;;;;3.02;1.67;;;;;;;11.50;56.92;100788.81;1727373;82;21246;-77
2021/05/12 00:35:16;;;;;;;2.98;1.62;;;;;;;11.36;56.88;100788.19;1737640;81;21603;-75
2021/05/12 00:37:43;;;;;;;3.70;1.40;;;;;;;11.26;56.75;100797.73;1715770;82;21081;-76
2021/05/12 00:40:13;;;;;;;3.33;1.77;;;;;;;11.17;56.61;100785.09;1713754;81;22696;-77
2021/05/12 00:42:39;;;;;;;3.33;1.40;;;;;;;11.07;56.67;100786.34;1711416;82;21134;-77
2021/05/12 00:45:07;;;;;;;3.05;1.45;;;;;;;10.96;56.88;100787.59;1738859;82;21057;-77
2021/05/12 00:47:33;;;;;;;2.47;1.60;;;;;;;10.87;56.75;100785.63;1727258;82;21017;-76
2021/05/12 00:50:04;;;;;;;2.65;1.52;;;;;;;10.77;56.64;100787.14;1714876;82;21135;-76
2021/05/12 00:52:31;;;;;;;2.27;1.50;;;;;;;10.69;56.73;100783.57;1705286;82;22533;-76
2021/05/12 00:54:57;;;;;;;3.83;2.08;;;;;;;10.62;56.99;100784.30;1714627;82;21615;-77
2021/05/12 00:57:23;;;;;;;2.45;1.70;;;;;;;10.56;57.17;100783.97;1732986;81;21678;-76
2021/05/12 00:59:53;;;;;;;3.90;2.00;;;;;;;10.49;57.36;100782.83;1718865;81;21718;-77
2021/05/12 01:02:21;;;;;;;2.70;1.67;;;;;;;10.42;57.71;100788.09;1707428;82;21096;-77
2021/05/12 01:04:47;;;;;;;2.67;1.70;;;;;;;10.32;57.97;100789.59;1714091;82;21222;-77
2021/05/12 01:07:14;;;;;;;3.58;1.67;;;;;;;10.26;58.08;100787.11;1715003;82;21116;-77
2021/05/12 01:09:40;;;;;;;3.50;1.90;;;;;;;10.19;58.49;100784.59;1713769;81;20977;-77
2021/05/12 01:12:07;;;;;;;3.22;1.72;;;;;;;10.10;58.97;100776.23;1737067;81;21162;-76
2021/05/12 01:14:34;;;;;;;4.42;1.95;;;;;;;10.01;59.19;100769.70;1709666;82;21025;-75
2021/05/12 01:17:00;;;;;;;2.50;1.70;;;;;;;9.93;59.38;100769.31;1697510;83;22487;-76
2021/05/12 01:19:27;;;;;;;2.83;1.90;;;;;;;9.83;59.87;100782.80;1704726;82;21107;-76
2021/05/12 01:21:55;;;;;;;2.60;1.70;;;;;;;9.75;59.98;100779.23;1712625;82;21493;-76
2021/05/12 01:24:22;;;;;;;2.52;1.70;;;;;;;9.68;60.33;100781.27;1727515;81;21096;-77
2021/05/12 01:26:48;;;;;;;3.00;1.95;;;;;;;9.63;60.45;100777.98;1729722;81;21084;-77
2021/05/12 01:29:14;;;;;;;4.25;1.90;;;;;;;9.59;60.51;100778.20;1737692;82;21160;-76
2021/05/12 01:31:44;;;;;;;3.50;1.72;;;;;;;9.55;60.55;100781.61;1729896;81;21050;-76
2021/05/12 01:34:15;;;;;;;2.90;1.85;;;;;;;9.51;60.75;100791.97;1721927;81;21084;-77
2021/05/12 01:36:42;;;;;;;3.00;1.92;;;;;;;9.47;60.92;100792.67;1706516;82;21008;-75
2021/05/12 01:39:08;;;;;;;2.90;1.85;;;;;;;9.43;61.22;100793.69;1736063;81;21140;-76
2021/05/12 01:41:35;;;;;;;3.05;1.92;;;;;;;9.38;61.34;100785.63;1733307;81;21164;-76
2021/05/12 01:44:05;;;;;;;2.60;1.80;;;;;;;9.33;61.55;100783.67;1714969;82;21643;-76
2021/05/12 01:46:32;;;;;;;2.75;1.90;;;;;;;9.29;61.73;100786.55;1738968;82;21510;-77
2021/05/12 01:49:01;;;;;;;4.55;2.05;;;;;;;9.25;61.71;100786.77;1717322;82;21767;-77
2021/05/12 01:51:26;;;;;;;4.67;1.70;;;;;;;9.21;62.06;100793.60;1734610;81;21174;-76
2021/05/12 01:53:53;;;;;;;4.08;1.80;;;;;;;9.14;62.28;100796.42;1721839;82;21742;-76
2021/05/12 01:56:19;;;;;;;3.08;2.00;;;;;;;9.11;62.35;100799.60;1740217;81;21504;-75
2021/05/12 01:58:45;;;;;;;2.90;2.10;;;;;;;9.06;62.68;100796.84;1692349;82;21073;-77
2021/05/12 02:01:11;;;;;;;3.20;1.95;;;;;;;9.03;62.77;100801.84;1736285;81;21263;-76
2021/05/12 02:03:38;;;;;;;3.90;2.00;;;;;;;8.99;62.95;100797.52;1736942;82;21117;-75
2021/05/12 02:06:05;;;;;;;3.47;2.10;;;;;;;8.95;63.17;100792.89;1729851;81;21736;-75
2021/05/12 02:08:31;;;;;;;3.77;2.08;;;;;;;8.90;63.30;100795.77;1740542;81;21492;-77
2021/05/12 02:11:01;;;;;;;3.00;2.08;;;;;;;8.86;63.43;100795.16;1744648;81;21604;-78
2021/05/12 02:13:29;;;;;;;3.20;1.90;;;;;;;8.83;63.71;100790.30;1708803;82;21107;-77
2021/05/12 02:15:55;;;;;;;2.77;2.12;;;;;;;8.78;63.79;100799.00;1712493;82;21107;-76
2021/05/12 02:18:22;;;;;;;3.30;2.22;;;;;;;8.75;64.10;100798.67;1728412;82;22927;-77
2021/05/12 02:20:48;;;;;;;3.27;2.10;;;;;;;8.71;64.19;100798.86;1743466;81;21075;-76
2021/05/12 02:23:17;;;;;;;3.27;1.87;;;;;;;8.68;64.42;100796.15;1712126;82;21041;-78
2021/05/12 02:25:43;;;;;;;4.12;2.00;;;;;;;8.63;64.57;100805.39;1724199;82;21186;-77
2021/05/12 02:28:10;;;;;;;3.20;2.00;;;;;;;8.61;64.72;100808.80;1745913;81;21006;-77
2021/05/12 02:30:37;;;;;;;3.83;2.00;;;;;;;8.58;64.80;100814.07;1720259;82;22628;-77
2021/05/12 02:33:05;;;;;;;2.50;1.90;;;;;;;8.56;65.00;100816.70;1707317;82;21110;-76
2021/05/12 02:35:31;;;;;;;3.15;2.10;;;;;;;8.54;65.11;100822.25;1742388;82;21073;-77
2021/05/12 02:37:58;;;;;;;4.47;1.98;;;;;;;8.52;65.23;100820.34;1737679;82;21607;-77
2021/05/12 02:40:24;;;;;;;2.75;1.90;;;;;;;8.51;65.35;100815.27;1725004;82;21421;-77
2021/05/12 02:42:53;;;;;;;3.15;2.00;;;;;;;8.52;65.54;100820.87;1716781;82;22656;-76
2021/05/12 02:45:20;;;;;;;4.45;1.70;;;;;;;8.51;65.60;100816.07;1726769;82;21691;-76
2021/05/12 02:47:57;;;;;;;2.70;1.50;;;;;;;8.52;65.58;100821.67;1717337;81;21101;-77
2021/05/12 02:50:15;;;;;;;3.00;1.70;;;;;;;8.53;65.68;100819.31;1732236;81;21785;-77
2021/05/12 02:52:42;;;;;;;3.37;1.70;;;;;;;8.55;65.59;100818.54;1716047;82;21089;-77
2021/05/12 02:55:10;;;;;;;2.22;1.47;;;;;;;8.57;65.52;100819.13;1711876;81;22882;-76
2021/05/12 02:57:37;;;;;;;3.17;1.67;;;;;;;8.59;65.52;100817.57;1745622;81;21107;-76
2021/05/12 03:00:05;;;;;;;3.27;1.67;;;;;;;8.62;65.49;100815.23;1719051;82;21072;-77
2021/05/12 03:02:32;;;;;;;3.35;1.52;;;;;;;8.64;65.46;100813.66;1716443;82;21706;-77
2021/05/12 03:04:58;;;;;;;2.35;1.60;;;;;;;8.67;65.42;100813.19;1714169;81;21687;-76
2021/05/12 03:07:25;;;;;;;2.58;1.50;;;;;;;8.71;65.45;100814.84;1719299;81;22090;-76
2021/05/12 03:09:51;;;;;;;3.58;1.67;;;;;;;8.75;65.32;100818.11;1717794;82;21658;-75
2021/05/12 03:12:18;;;;;;;4.25;1.80;;;;;;;8.78;65.13;100810.17;1742795;81;21072;-76
2021/05/12 03:14:44;;;;;;;3.70;1.70;;;;;;;8.82;65.14;100808.67;1729793;81;21607;-77
2021/05/12 03:17:11;;;;;;;3.08;1.55;;;;;;;8.86;65.18;100812.47;1737759;82;21088;-76
2021/05/12 03:19:37;;;;;;;3.67;1.62;;;;;;;8.91;65.08;100812.55;1739302;81;21076;-77
2021/05/12 03:22:04;;;;;;;2.87;1.77;;;;;;;8.97;65.03;100811.59;1722452;82;21013;-76
2021/05/12 03:24:30;;;;;;;2.72;1.67;;;;;;;9.00;64.60;100813.78;1734733;82;21199;-76
2021/05/12 03:26:56;;;;;;;2.67;1.67;;;;;;;9.02;64.47;100801.56;1718562;82;21065;-76
2021/05/12 03:29:23;;;;;;;2.95;1.60;;;;;;;9.06;64.26;100803.50;1714921;82;21144;-77
2021/05/12 03:31:49;;;;;;;2.60;1.45;;;;;;;9.10;64.19;100799.83;1716379;82;21096;-77
2021/05/12 03:34:16;;;;;;;2.77;1.35;;;;;;;9.14;64.12;100800.42;1734806;81;21080;-76
2021/05/12 03:36:42;;;;;;;2.20;1.57;;;;;;;9.19;63.97;100798.91;1716562;82;21077;-76
2021/05/12 03:39:08;;;;;;;2.52;1.50;;;;;;;9.22;63.92;100795.23;1728956;82;21130;-76
2021/05/12 03:41:35;;;;;;;2.20;1.37;;;;;;;9.27;63.86;100791.30;1737492;81;22693;-77
2021/05/12 03:44:02;;;;;;;2.20;1.25;;;;;;;9.34;63.81;100797.81;1710260;82;21080;-77
2021/05/12 03:46:28;;;;;;;1.75;1.27;;;;;;;9.39;63.75;100792.57;1737039;81;21081;-77
2021/05/12 03:48:55;;;;;;;3.80;1.37;;;;;;;9.46;63.59;100793.73;1715993;82;21045;-76
2021/05/12 03:51:21;;;;;;;2.20;1.40;;;;;;;9.51;63.69;100791.97;1714154;82;21161;-76
2021/05/12 03:53:48;;;;;;;1.82;1.00;;;;;;;9.60;63.15;100785.14;1716418;82;21112;-75
2021/05/12 03:56:14;;;;;;;2.02;1.47;;;;;;;9.66;63.11;100795.37;1723584;81;22691;-76
2021/05/12 03:58:41;;;;;;;2.15;1.27;;;;;;;9.75;62.75;100790.44;1744648;82;21212;-76
2021/05/12 04:01:07;;;;;;;2.27;1.32;;;;;;;9.82;62.62;100793.20;1720126;82;21043;-77
2021/05/12 04:03:34;;;;;;;3.10;1.65;;;;;;;9.89;62.32;100793.02;1713781;81;21422;-76
2021/05/12 04:06:00;;;;;;;2.27;1.15;;;;;;;9.94;62.18;100793.63;1714423;82;20993;-75
2021/05/12 04:08:27;;;;;;;2.33;1.02;;;;;;;9.97;61.70;100799.78;1716719;82;22684;-76
2021/05/12 04:10:53;;;;;;;2.55;1.30;;;;;;;10.01;61.95;100796.39;1719176;82;21104;-76
2021/05/12 04:13:20;;;;;;;2.30;1.10;;;;;;;10.11;62.28;100799.72;1732923;81;21095;-76
2021/05/12 04:15:48;;;;;;;2.65;1.05;;;;;;;10.21;61.76;100804.38;1712640;82;21120;-76
2021/05/12 04:18:16;;;;;;;2.37;1.30;;;;;;;10.28;61.49;100811.70;1716622;82;21046;-76
2021/05/12 04:20:43;;;;;;;3.08;1.10;;;;;;;10.32;61.14;100809.61;1716699;81;22503;-75
2021/05/12 04:23:10;;;;;;;2.15;1.15;;;;;;;10.36;60.94;100801.91;1714521;82;21041;-76
2021/05/12 04:25:36;;;;;;;3.37;1.52;;;;;;;10.41;61.01;100805.98;1709822;81;21104;-75
2021/05/12 04:28:03;;;;;;;2.25;1.02;;;;;;;10.46;60.61;100808.73;1727281;82;21271;-75
2021/05/12 04:30:31;;;;;;;2.40;1.30;;;;;;;10.50;60.57;100803.16;1707968;82;21253;-77
2021/05/12 04:32:59;;;;;;;3.12;1.45;;;;;;;10.53;60.79;100796.52;1738170;81;21168;-77
2021/05/12 04:35:26;;;;;;;1.42;1.10;;;;;;;10.60;60.56;100792.31;1744220;80;21098;-76
2021/05/12 04:37:53;;;;;;;2.22;1.17;;;;;;;10.67;60.42;100799.06;1710269;82;21004;-75
2021/05/12 04:40:19;;;;;;;1.67;1.25;;;;;;;10.70;60.19;100797.77;1727554;81;21145;-77
2021/05/12 04:42:46;;;;;;;1.95;1.20;;;;;;;10.76;60.29;100804.77;1706576;82;21793;-76
2021/05/12 04:45:15;;;;;;;3.67;1.30;;;;;;;10.82;60.33;100806.95;1733850;81;21694;-76
2021/05/12 04:47:42;;;;;;;2.47;1.37;;;;;;;10.86;59.71;100802.20;1712439;82;21021;-77
2021/05/12 04:50:10;;;;;;;2.15;1.20;;;;;;;10.87;59.75;100800.33;1719317;82;21049;-76
2021/05/12 04:52:38;;;;;;;2.50;1.30;;;;;;;10.92;60.08;100794.48;1718019;82;21072;-76
2021/05/12 04:55:06;;;;;;;2.08;1.27;;;;;;;11.02;60.51;100791.09;1726457;81;21196;-77
2021/05/12 04:57:32;;;;;;;3.35;1.55;;;;;;;11.15;60.55;100789.87;1732940;82;21117;-75
2021/05/12 04:59:58;;;;;;;2.52;1.32;;;;;;;11.26;59.68;100791.59;1713904;82;21590;-76
2021/05/12 05:02:25;;;;;;;2.87;1.67;;;;;;;11.30;59.28;100787.33;1712864;81;21091;-75
2021/05/12 05:04:53;;;;;;;2.83;1.30;;;;;;;11.34;59.15;100791.10;1746191;80;21773;-77
2021/05/12 05:07:19;;;;;;;2.33;1.30;;;;;;;11.38;59.13;100792.19;1725560;81;21081;-77
2021/05/12 05:09:46;;;;;;;1.70;1.22;;;;;;;11.42;58.93;100793.85;1719087;82;22567;-77
2021/05/12 05:12:12;;;;;;;3.30;1.22;;;;;;;11.45;59.03;100791.47;1728490;82;21062;-76
2021/05/12 05:14:39;;;;;;;2.92;1.32;;;;;;;11.49;58.48;100793.09;1720030;81;21025;-76
2021/05/12 05:17:05;;;;;;;1.98;1.37;;;;;;;11.57;58.95;100799.83;1725138;81;21092;-76
2021/05/12 05:19:32;;;;;;;2.58;1.30;;;;;;;11.63;58.39;100802.81;1725593;82;21057;-77
2021/05/12 05:22:00;;;;;;;2.08;1.22;;;;;;;11.70;58.21;100798.03;1727896;82;22650;-78
2021/05/12 05:24:26;;;;;;;3.52;1.55;;;;;;;11.70;57.57;100792.15;1734938;82;21103;-76
2021/05/12 05:26:53;;;;;;;2.25;1.20;;;;;;;11.66;57.66;100795.07;1713867;82;21604;-76
2021/05/12 05:29:19;;;;;;;2.05;1.30;;;;;;;11.72;58.45;100798.59;1714774;82;21136;-76
2021/05/12 05:31:46;;;;;;;1.82;1.00;;;;;;;11.80;57.45;100794.08;1716154;81;21156;-74
2021/05/12 05:34:30;;;;;;;1.92;1.10;;;;;;;11.84;56.97;100793.86;1742588;81;22864;-75
2021/05/12 05:37:15;;;;;;;2.83;1.40;;;;;;;11.86;56.94;100797.09;1712484;82;21112;-75
2021/05/12 05:40:00;;;;;;;3.02;1.30;;;;;;;11.91;57.08;100789.61;1727403;82;22251;-76
2021/05/12 05:42:45;;;;;;;2.15;1.30;;;;;;;12.01;57.36;100784.84;1726334;82;21222;-76
2021/05/12 05:45:30;;;;;;;2.02;1.20;;;;;;;12.15;57.50;100795.38;1726425;82;21575;-76
2021/05/12 05:48:15;;;;;;;3.05;1.40;;;;;;;12.29;56.27;100784.97;1715983;82;22785;-75
2021/05/12 05:51:00;;;;;;;2.35;1.50;;;;;;;12.36;55.53;100784.19;1719208;82;21189;-75
2021/05/12 05:53:45;;;;;;;1.80;1.20;;;;;;;12.38;55.66;100784.20;1732646;82;21623;-75
2021/05/12 05:56:30;;;;;;;2.47;1.00;;;;;;;12.39;55.23;100779.65;1710351;82;22744;-76
2021/05/12 05:59:15;;;;;;;4.35;1.47;;;;;;;12.43;55.05;100787.42;1707303;82;21060;-75
2021/05/12 06:02:01;;;;;;;1.40;0.93;;;;;;;12.47;54.88;100783.68;1702022;82;22575;-76
2021/05/12 06:04:46;;;;;;;2.20;0.98;;;;;;;12.49;54.22;100774.31;1699884;82;21337;-76
2021/05/12 06:07:31;;;;;;;2.08;0.90;;;;;;;12.52;55.00;100775.67;1730869;82;21073;-73
2021/05/12 06:10:16;;;;;;;1.82;0.98;;;;;;;12.64;54.42;100782.94;1729462;82;21063;-76
2021/05/12 06:13:01;;;;;;;2.05;0.90;;;;;;;12.80;54.04;100781.06;1717042;82;21001;-73
2021/05/12 06:15:46;;;;;;;3.00;0.90;;;;;;;12.95;53.06;100783.77;1728033;81;21983;-74
2021/05/12 06:18:30;;;;;;;1.50;0.80;;;;;;;12.97;52.67;100777.62;1703379;82;21568;-74
2021/05/12 06:21:15;;;;;;;2.13;1.00;;;;;;;12.96;53.09;100779.21;1713474;82;21384;-74
2021/05/12 06:24:00;;;;;;;2.10;0.80;;;;;;;13.03;53.50;100774.39;1715810;81;21624;-75
2021/05/12 06:26:47;;;;;;;1.10;0.80;;;;;;;13.16;52.61;100783.23;1732512;81;21165;-75
2021/05/12 06:29:26;;;;;;;1.75;0.62;;;;;;;13.21;52.08;100777.89;1665264;82;22956;-75
2021/05/12 06:32:11;;;;;;;3.97;0.90;;;;;;;13.40;51.63;100777.38;1733538;82;21101;-73
2021/05/12 06:34:56;;;;;;;1.87;0.90;;;;;;;13.57;50.30;100771.17;1706059;82;22021;-73
2021/05/12 06:37:40;;;;;;;1.40;0.70;;;;;;;13.59;49.80;100770.38;1714016;82;21292;-75
2021/05/12 06:40:19;;;;;;;1.63;0.70;;;;;;;13.64;49.48;100762.30;1726284;82;21297;-75
2021/05/12 06:42:46;;;;;;;1.10;0.70;;;;;;;13.68;50.08;100771.41;1737616;82;21311;-77
2021/05/12 06:45:13;;;;;;;1.10;0.60;;;;;;;13.82;49.60;100767.63;1733160;81;21217;-74
2021/05/12 06:47:41;;;;;;;1.83;0.70;;;;;;;13.89;49.61;100768.69;1733970;81;21254;-76
2021/05/12 06:50:09;;;;;;;1.70;0.60;;;;;;;13.92;49.10;100770.28;1711459;81;21497;-74
2021/05/12 06:52:35;;;;;;;1.00;0.70;;;;;;;13.95;48.29;100761.69;1706119;82;21215;-74
2021/05/12 06:55:02;;;;;;;1.07;0.67;;;;;;;13.96;47.82;100769.19;1715559;82;23162;-74
2021/05/12 06:57:29;;;;;;;1.63;0.60;;;;;;;13.95;47.91;100761.69;1729437;81;21391;-74
2021/05/12 06:59:55;;;;;;;1.23;0.70;;;;;;;14.02;48.05;100773.47;1731693;81;21417;-75
2021/05/12 07:02:21;;;;;;;1.50;0.50;;;;;;;14.17;48.08;100760.50;1735910;81;21269;-71
2021/05/12 07:04:48;;;;;;;0.97;0.43;;;;;;;14.35;46.70;100763.92;1719063;81;21429;-73
2021/05/12 07:07:18;;;;;;;1.00;0.50;;;;;;;14.47;45.65;100768.95;1706620;82;22588;-72
2021/05/12 07:09:44;;;;;;;1.73;0.50;;;;;;;14.48;45.83;100769.23;1729237;81;21438;-71
2021/05/12 07:12:11;;;;;;;0.70;0.50;;;;;;;14.44;45.76;100770.84;1712771;82;21392;-73
2021/05/12 07:14:38;;;;;;;0.77;0.50;;;;;;;14.41;46.39;100766.84;1712253;82;21419;-73
2021/05/12 07:17:05;;;;;;;1.17;0.50;;;;;;;14.37;46.83;100765.77;1728428;82;21750;-73
2021/05/12 07:19:31;;;;;;;0.60;0.47;;;;;;;14.28;46.53;100766.91;1724008;81;21650;-74
2021/05/12 07:21:58;;;;;;;1.23;0.60;;;;;;;14.18;46.79;100767.48;1708300;82;21481;-76
2021/05/12 07:24:24;;;;;;;0.67;0.60;;;;;;;14.05;47.38;100764.33;1731308;82;21269;-76
2021/05/12 07:26:51;;;;;;;1.17;0.60;;;;;;;14.01;47.54;100764.59;1723804;82;21462;-76
2021/05/12 07:29:17;;;;;;;1.50;0.60;;;;;;;13.98;48.02;100760.31;1724193;82;21464;-76
2021/05/12 07:31:43;;;;;;;1.10;0.60;;;;;;;14.03;48.18;100762.44;1711787;82;22701;-75
2021/05/12 07:34:10;;;;;;;0.97;0.70;;;;;;;14.22;48.32;100763.19;1720220;82;21881;-76
2021/05/12 07:36:38;;;;;;;1.73;0.80;;;;;;;14.22;48.32;100763.19;1723436;82;22037;-76
2021/05/12 07:39:07;;;;;;;4.23;0.93;;;;;;;14.21;47.57;100754.30;1714154;82;21585;-74
2021/05/12 07:41:37;;;;;;;2.43;0.93;;;;;;;14.15;47.45;100763.99;1710948;82;21309;-75
2021/05/12 07:44:04;;;;;;;1.87;0.97;;;;;;;14.06;48.62;100766.47;1737065;82;22013;-73
2021/05/12 07:46:31;;;;;;;1.77;0.90;;;;;;;13.96;47.88;100764.62;1711188;82;21617;-76
2021/05/12 07:48:58;;;;;;;1.57;0.60;;;;;;;13.80;49.22;100769.23;1712504;82;21404;-77
2021/05/12 07:51:24;;;;;;;0.77;0.70;;;;;;;13.71;49.19;100774.89;1704867;82;21486;-75
2021/05/12 07:53:50;;;;;;;1.87;1.00;;;;;;;13.63;49.51;100773.31;1709742;82;21367;-74
2021/05/12 07:56:17;;;;;;;1.27;0.80;;;;;;;13.53;49.89;100772.80;1699832;82;22569;-76
2021/05/12 07:58:43;;;;;;;3.33;1.10;;;;;;;13.43;50.26;100766.11;1716528;81;21479;-75
2021/05/12 08:01:22;;;;;;;2.10;1.00;;;;;;;13.34;50.65;100773.89;1731624;82;21909;-75
2021/05/12 08:03:47;;;;;;;1.97;0.80;;;;;;;13.30;51.31;100774.17;1718384;82;21431;-75
2021/05/12 08:06:14;;;;;;;2.33;1.10;;;;;;;13.32;51.52;100770.12;1718690;82;21272;-75
2021/05/12 08:08:40;;;;;;;3.13;1.00;;;;;;;13.34;51.22;100769.86;1716336;82;22617;-75
2021/05/12 08:11:07;;;;;;;3.03;1.03;;;;;;;13.36;51.39;100763.16;1711337;82;21392;-75
2021/05/12 08:13:33;;;;;;;1.73;0.70;;;;;;;13.40;51.27;100755.91;1700900;82;21408;-75
2021/05/12 08:16:00;;;;;;;1.63;0.70;;;;;;;13.48;51.44;100758.83;1718536;82;22761;-76
2021/05/12 08:18:26;;;;;;;1.20;0.70;;;;;;;13.56;50.81;100751.59;1737386;82;21358;-75
2021/05/12 08:20:55;;;;;;;2.23;1.00;;;;;;;13.62;50.54;100741.63;1735077;82;21637;-75
2021/05/12 08:23:23;;;;;;;2.57;0.87;;;;;;;13.69;50.99;100742.67;1734034;82;21167;-75
2021/05/12 08:25:50;;;;;;;2.17;0.90;;;;;;;13.77;50.48;100741.59;1718406;82;21859;-75
2021/05/12 08:28:17;;;;;;;1.10;0.80;;;;;;;13.91;50.57;100732.95;1729329;81;21893;-74
2021/05/12 08:30:46;;;;;;;2.23;0.80;;;;;;;14.06;49.14;100736.92;1700925;82;21268;-75
2021/05/12 08:33:14;;;;;;;2.07;0.80;;;;;;;14.12;48.34;100734.48;1708419;83;22730;-75
2021/05/12 08:35:43;;;;;;;1.03;0.63;;;;;;;14.10;48.38;100728.57;1733215;80;21567;-74
2021/05/12 08:38:18;;;;;;;2.20;0.73;;;;;;;14.13;48.68;100725.88;1736333;81;21480;-73
2021/05/12 08:40:46;;;;;;;1.10;0.60;;;;;;;14.17;48.37;100719.66;1713578;82;21898;-74
2021/05/12 08:43:14;;;;;;;0.80;0.50;;;;;;;14.23;47.94;100721.80;1734573;81;21443;-75
2021/05/12 08:45:46;;;;;;;0.97;0.60;;;;;;;14.38;46.77;100711.48;1733418;82;21828;-75
2021/05/12 08:48:14;;;;;;;1.13;0.70;;;;;;;14.41;47.77;100702.87;1730634;82;21714;-74
2021/05/12 08:50:41;;;;;;;1.63;0.70;;;;;;;14.41;47.77;100702.87;1711612;82;22062;-75
2021/05/12 08:53:07;;;;;;;1.47;0.70;;;;;;;14.49;48.06;100703.64;1705505;82;21527;-74
2021/05/12 08:55:33;;;;;;;1.20;0.60;;;;;;;14.65;47.50;100707.05;1738601;81;21474;-74
2021/05/12 08:58:00;;;;;;;2.33;0.80;;;;;;;14.69;46.63;100698.68;1747793;80;22563;-74
2021/05/12 09:00:27;;;;;;;2.83;1.23;;;;;;;14.69;46.63;100698.68;1701359;82;21536;-73
2021/05/12 09:02:54;;;;;;;1.00;0.80;;;;;;;14.69;46.59;100695.45;1715457;82;21442;-75
2021/05/12 09:05:21;;;;;;;1.07;0.67;;;;;;;14.79;46.47;100685.16;1739591;81;21513;-73
2021/05/12 09:07:47;;;;;;;1.50;0.70;;;;;;;14.89;46.94;100681.03;1734048;81;21473;-74
2021/05/12 09:10:15;;;;;;;2.47;0.80;;;;;;;15.01;45.87;100684.16;1725494;82;21890;-75
2021/05/12 09:12:49;;;;;;;1.60;0.63;;;;;;;15.13;45.56;100680.27;1724683;82;22049;-74
2021/05/12 09:15:18;;;;;;;2.87;0.90;;;;;;;15.12;45.48;100680.02;1702981;82;21791;-75
2021/05/12 09:17:46;;;;;;;2.50;0.90;;;;;;;15.17;46.04;100674.06;1704799;83;22130;-75
2021/05/12 09:20:28;;;;;;;2.83;1.07;;;;;;;15.25;46.88;100669.94;1701580;82;21559;-75
2021/05/12 09:23:08;;;;;;;1.40;0.80;;;;;;;15.32;46.94;100670.94;1711909;82;22598;-75
2021/05/12 09:25:36;;;;;;;2.03;0.70;;;;;;;15.32;46.94;100670.94;1726088;82;21610;-75
2021/05/12 09:28:15;;;;;;;1.27;0.80;;;;;;;15.56;46.35;100668.23;1736830;81;21811;-70
2021/05/12 09:30:51;;;;;;;1.07;0.70;;;;;;;15.83;44.79;100655.57;1703179;82;23196;-69
2021/05/12 09:33:30;;;;;;;2.17;0.70;;;;;;;16.02;43.38;100653.66;1709950;81;21784;-75
2021/05/12 09:35:57;;;;;;;3.53;0.80;;;;;;;15.95;43.53;100649.98;1732063;81;21818;-74
2021/05/12 09:38:29;;;;;;;1.13;0.60;;;;;;;15.79;43.42;100652.62;1717373;81;21778;-75
2021/05/12 09:41:10;;;;;;;;;;;;;;;15.73;44.36;100646.25;1734289;82;21788;-77
2021/05/12 09:43:45;;;;;;;0.83;0.60;;;;;;;15.76;42.76;100649.72;1729166;82;20364;-73
2021/05/12 09:46:20;;;;;;;1.77;0.60;;;;;;;15.62;42.63;100649.05;1733175;82;21732;-74
2021/05/12 09:48:49;;;;;;;1.10;0.63;;;;;;;15.52;43.34;100655.90;1731384;81;21771;-78
2021/05/12 09:51:20;;;;;;;1.43;0.70;;;;;;;15.44;44.19;100656.55;1724067;82;21880;-74
2021/05/12 09:54:14;;;;;;;1.62;0.70;;;;;;;15.35;44.47;100661.75;1705431;82;21767;-76
2021/05/12 09:56:57;;;;;;;2.83;0.70;;;;;;;15.21;45.21;100671.59;1717290;81;22071;-76
2021/05/12 09:59:29;;;;;;;1.27;0.80;;;;;;;15.21;45.21;100671.59;1728794;81;21762;-72
2021/05/12 10:02:03;;;;;;;1.13;0.80;;;;;;;15.26;46.21;100660.77;1741087;81;23395;-72
2021/05/12 10:04:38;;;;;;;1.67;0.80;;;;;;;15.35;45.26;100655.02;1726762;82;21774;-71
2021/05/12 10:07:23;;;;;;;2.87;0.83;;;;;;;15.53;45.52;100651.31;1711158;82;21794;-71
2021/05/12 10:09:53;;;;;;;2.60;0.70;;;;;;;15.69;45.10;100646.86;1714602;82;21842;-72
2021/05/12 10:12:21;;;;;;;0.63;0.60;;;;;;;15.81;44.67;100638.89;1734502;82;21805;-69
2021/05/12 10:14:50;;;;;;;1.17;0.67;;;;;;;15.85;44.11;100640.70;1734138;82;22315;-76
2021/05/12 10:17:19;;;;;;;1.23;0.60;;;;;;;15.88;43.38;100642.02;1714551;82;21793;-71
2021/05/12 10:19:47;;;;;;;1.70;0.50;;;;;;;15.83;43.00;100643.45;1735469;82;21814;-70
2021/05/12 10:22:15;;;;;;;1.70;0.60;;;;;;;15.76;42.23;100647.02;1704063;82;21793;-69
2021/05/12 10:24:43;;;;;;;1.30;0.70;;;;;;;15.67;42.70;100642.30;1729949;81;22365;-73
2021/05/12 10:27:27;;;;;;;0.90;0.50;;;;;;;15.69;43.61;100644.16;1730653;82;23441;-73
2021/05/12 10:29:57;;;;;;;0.87;0.50;;;;;;;15.73;43.78;100634.96;1733826;81;22456;-72
2021/05/12 10:32:32;;;;;;;0.50;0.50;;;;;;;15.68;43.93;100646.58;1706631;82;21759;-73
2021/05/12 10:35:07;;;;;;;2.10;0.60;;;;;;;15.62;43.80;100640.97;1730488;81;21779;-74
2021/05/12 10:37:43;;;;;;;0.50;0.50;;;;;;;15.52;43.28;100638.95;1718315;82;21747;-74
2021/05/12 10:40:24;;;;;;;2.77;0.57;;;;;;;15.47;44.14;100637.93;1733228;81;22396;-73
2021/05/12 10:45:53;;;;;;;1.20;0.60;;;;;;;15.61;44.36;100635.88;1732808;82;21187;-73
2021/05/12 10:48:34;;;;;;;2.40;0.67;;;;;;;15.81;43.70;100625.42;1716115;82;22280;-72
2021/05/12 10:51:04;;;;;;;1.20;0.50;;;;;;;15.85;43.25;100627.23;1739970;81;21786;-73
2021/05/12 10:53:43;;;;;;;1.67;0.70;;;;;;;15.84;42.34;100610.83;1710185;82;22596;-75
2021/05/12 10:56:10;;;;;;;1.53;0.50;;;;;;;15.82;43.87;100621.62;1731001;82;21859;-75
2021/05/12 10:58:59;;;;;;;0.67;0.53;;;;;;;15.89;43.43;100611.29;1718329;82;21730;-74
2021/05/12 11:01:37;;;;;;;1.00;0.60;;;;;;;16.13;45.65;100607.98;1733787;82;22344;-75
2021/05/12 11:04:06;;;;;;;0.90;0.60;;;;;;;16.59;42.76;100601.06;1687908;83;21080;-74
2021/05/12 11:06:41;;;;;;;0.93;0.63;;;;;;;16.85;43.25;100597.41;1716281;82;22550;-75
2021/05/12 11:09:17;;;;;;;2.10;0.77;;;;;;;17.07;42.01;100584.56;1711078;82;21108;-74
2021/05/12 11:11:50;;;;;;;1.00;0.60;;;;;;;17.14;41.44;100582.81;1713305;81;21060;-75
2021/05/12 11:14:31;;;;;;;1.30;0.60;;;;;;;17.06;40.47;100582.97;1712885;82;21152;-76
2021/05/12 11:17:22;;;;;;;3.90;0.60;;;;;;;16.83;41.49;100588.80;1727707;82;21127;-76
2021/05/12 11:19:49;;;;;;;0.90;0.60;;;;;;;16.59;42.26;100587.03;1741847;82;22420;-75
2021/05/12 11:25:20;;;;;;;1.00;0.60;;;;;;;16.32;42.27;100571.58;1710696;82;21717;-75
2021/05/12 11:33:33;;;;;;;2.20;1.00;;;;;;;16.31;43.03;100575.35;1708129;82;22715;-75
2021/05/12 11:36:08;;;;;;;2.40;0.50;;;;;;;16.28;42.55;100575.94;1712334;82;21136;-75
2021/05/12 11:38:34;;;;;;;2.73;0.97;;;;;;;16.23;43.02;100573.90;1714314;82;21778;-75
2021/05/12 11:41:17;;;;;;;0.80;0.60;;;;;;;16.26;42.61;100575.45;1712663;82;21115;-75
2021/05/12 11:44:00;;;;;;;0.77;0.60;;;;;;;16.31;42.92;100569.17;1728044;81;21180;-76
2021/05/12 11:46:35;;;;;;;2.83;0.80;;;;;;;16.30;41.55;100556.24;1707896;82;22730;-76
2021/05/12 11:49:05;;;;;;;2.13;0.70;;;;;;;16.17;42.09;100569.13;1714972;82;21124;-75
2021/05/12 11:51:40;;;;;;;0.83;0.53;;;;;;;16.14;41.30;100562.98;1696582;82;21762;-73